KLWD

Lamoni Municipal Airport

Lamoni, Iowa, USA
METAR KLWD 171353Z AUTO 02004KT 10SM CLR M02/M06 A3028 RMK AO2 SLP268 T10221056
Observed Flight Rules
Dec-17 @ 13:53 UTC (36 minutes ago) Visual Flight Rules
Wind Visibility Clouds
20° at 4 knots 10 miles
  • Clear skies
Temperatures Readings
Current -2°C / 28°F
Dewpoint -6°C / 21°F
Humidity 74%
Altimeter 30.28" Hg
Pressure 1026.8 hPa
Elevation 346
METAR KLWD 171353Z AUTO 02004KT 10SM CLR M02/M06 A3028 RMK AO2 SLP268 T10221056
Observed Flight Rules
Dec-17 @ 13:53 UTC
(36 minutes ago)
VFR
Wind Visibility
20° at 4 knots 10 miles
Clouds
  • Clear skies
Temperature Dewpoint
-2°C / 28°F -6°C / 21°F
Humidity Altimeter Pressure
74% 30.28" Hg 1026.8 hPa